Time;durP1;ratioP1;P1;durP2;ratioP2;P2;SDS_P1;SDS_P2;PMS_P1;PMS_P2;Temp;Humidity;BMP_temperature;BMP_pressure;BME280_temperature;BME280_humidity;BME280_pressure;Samples;Min_cycle;Max_cycle;Signal;HPM_P1;HPM_P2
2021/05/24 00:01:38;;;;;;;7.63;4.45;;;5.40;99.90;;;;;;6015194;23;20078;-92
2021/05/24 00:04:19;;;;;;;8.38;4.13;;;5.30;99.90;;;;;;5993311;23;20499;-93
2021/05/24 00:06:56;;;;;;;6.78;4.25;;;5.30;99.90;;;;;;5991489;23;20023;-93
2021/05/24 00:09:43;;;;;;;8.63;4.47;;;5.20;99.90;;;;;;5986510;23;20094;-92
2021/05/24 00:13:04;;;;;;;;;;;;;;;;;;;;;
2021/05/24 00:26:13;;;;;;;;;;;;;;;;;;;;;
2021/05/24 00:35:58;;;;;;;9.07;4.70;;;5.40;99.90;;;;;;5874806;24;20014;-93
2021/05/24 00:39:07;;;;;;;;;;;;;;;;;;;;;
2021/05/24 00:42:57;;;;;;;7.22;4.72;;;5.40;99.90;;;;;;5925247;24;20081;-94
2021/05/24 00:48:57;;;;;;;;;;;;;;;;;;;;;
2021/05/24 00:51:59;;;;;;;4.80;3.60;;;5.20;99.90;;;;;;5879036;24;20114;-92
2021/05/24 00:55:42;;;;;;;;;;;;;;;;;;;;;
2021/05/24 01:03:03;;;;;;;7.15;4.88;;;5.30;99.90;;;;;;5887217;24;20021;-93
2021/05/24 01:09:36;;;;;;;;;;;;;;;;;;;;;
2021/05/24 01:15:34;;;;;;;;;;;;;;;;;;;;;
2021/05/24 01:22:58;;;;;;;;;;;;;;;;;;;;;
2021/05/24 01:25:28;;;;;;;6.22;4.25;;;5.10;99.90;;;;;;5866732;24;20214;-92
2021/05/24 01:28:59;;;;;;;;;;;;;;;;;;;;;
2021/05/24 01:32:28;;;;;;;;;;;;;;;;;;;;;
2021/05/24 01:39:38;;;;;;;;;;;;;;;;;;;;;
2021/05/24 01:43:04;;;;;;;;;;;;;;;;;;;;;
2021/05/24 02:15:44;;;;;;;;;;;;;;;;;;;;;
2021/05/24 02:26:44;;;;;;;;;;;;;;;;;;;;;
2021/05/24 02:53:23;;;;;;;;;;;;;;;;;;;;;
2021/05/24 04:48:04;;;;;;;4.80;2.65;;;6.10;99.90;;;;;;5632463;22;15103559;-92
2021/05/24 04:51:04;;;;;;;;;;;;;;;;;;;;;
2021/05/24 04:54:17;;;;;;;;;;;;;;;;;;;;;
2021/05/24 05:09:30;;;;;;;;;;;;;;;;;;;;;
2021/05/24 05:38:57;;;;;;;4.10;2.45;;;7.90;99.90;;;;;;5107247;27;20343;-93
2021/05/24 05:41:23;;;;;;;6.07;2.22;;;8.10;99.90;;;;;;5083879;28;20040;-92
2021/05/24 05:43:53;;;;;;;4.47;2.13;;;8.20;99.90;;;;;;5080297;28;20060;-94
2021/05/24 05:46:20;;;;;;;3.42;2.28;;;8.30;99.90;;;;;;5088119;28;20213;-93
2021/05/24 05:48:50;;;;;;;3.90;2.40;;;8.40;99.90;;;;;;5092560;28;20476;-92
2021/05/24 05:51:18;;;;;;;3.30;2.22;;;8.40;99.90;;;;;;5092392;28;20445;-93
2021/05/24 05:53:45;;;;;;;6.95;2.97;;;8.60;99.90;;;;;;5091636;28;20174;-91
2021/05/24 05:56:11;;;;;;;5.63;2.80;;;8.60;99.90;;;;;;5090690;28;20107;-94
2021/05/24 05:58:38;;;;;;;7.25;3.25;;;8.70;99.90;;;;;;5104407;28;20108;-94
2021/05/24 06:01:06;;;;;;;4.38;2.80;;;8.70;99.90;;;;;;5103176;28;20087;-94
2021/05/24 06:03:48;;;;;;;2.88;2.13;;;8.80;99.90;;;;;;5100896;28;20044;-93
2021/05/24 07:38:50;;;;;;;2.13;0.90;;;13.40;95.60;;;;;;4995262;23;20058;-93
2021/05/24 07:41:42;;;;;;;3.25;1.20;;;13.50;91.30;;;;;;4903840;29;20087;-92
2021/05/24 07:44:14;;;;;;;1.75;1.05;;;13.60;91.90;;;;;;4922308;29;20056;-92
2021/05/24 08:19:39;;;;;;;2.83;0.95;;;14.40;88.70;;;;;;5326686;23;20048;-93
2021/05/24 09:08:33;;;;;;;1.40;0.60;;;19.50;57.10;;;;;;4963256;28;20046;-93
2021/05/24 10:01:02;;;;;;;;;;;;;;;;;;;;;
2021/05/24 10:04:07;;;;;;;1.75;1.20;;;19.80;51.50;;;;;;4912387;29;20032;-93
2021/05/24 10:07:32;;;;;;;1.73;0.73;;;19.50;52.20;;;;;;4936334;29;20052;-94
2021/05/24 10:10:31;;;;;;;;;;;18.90;54.50;;;;;;4904513;29;20044;-93
2021/05/24 10:13:32;;;;;;;0.75;0.60;;;18.60;54.00;;;;;;4883284;29;19928;-93
2021/05/24 10:28:26;;;;;;;;;;;;;;;;;;;;;
2021/05/24 10:39:14;;;;;;;2.08;0.50;;;18.30;54.20;;;;;;4945733;29;20111;-93
2021/05/24 10:49:32;;;;;;;0.80;0.52;;;18.30;54.00;;;;;;4829264;29;20085;-89
2021/05/24 11:00:37;;;;;;;;;;;;;;;;;;;;;
2021/05/24 11:19:28;;;;;;;2.40;1.00;;;18.70;54.70;;;;;;4708576;30;20065;-93
2021/05/24 11:30:27;;;;;;;1.05;0.57;;;19.90;52.30;;;;;;4659491;30;20074;-91
2021/05/24 11:51:31;;;;;;;0.90;0.60;;;20.90;50.50;;;;;;5066486;28;20385;-94
2021/05/24 11:54:01;;;;;;;1.52;0.80;;;20.80;48.00;;;;;;5066967;28;20055;-91
2021/05/24 11:56:47;;;;;;;2.00;0.82;;;20.50;46.80;;;;;;5054868;28;20033;-94
2021/05/24 11:59:22;;;;;;;1.45;0.70;;;20.40;49.60;;;;;;5076459;28;20055;-92
2021/05/24 12:07:12;;;;;;;;;;;;;;;;;;;;;
2021/05/24 12:14:31;;;;;;;2.70;1.10;;;19.50;52.30;;;;;;4922589;28;20043;-94
2021/05/24 12:17:49;;;;;;;3.50;0.75;;;19.10;53.60;;;;;;4964507;28;20728;-94
2021/05/24 12:20:14;;;;;;;1.88;0.80;;;18.70;52.00;;;;;;5031940;28;20053;-93
2021/05/24 12:22:54;;;;;;;1.58;0.70;;;18.40;53.30;;;;;;5032874;28;20046;-94
2021/05/24 12:25:26;;;;;;;1.80;0.77;;;18.20;50.00;;;;;;5032444;28;20053;-93
2021/05/24 12:28:12;;;;;;;;;;;;;;;;;;;;;
2021/05/24 12:31:05;;;;;;;2.28;0.80;;;17.90;52.30;;;;;;4972321;28;20058;-93
2021/05/24 12:35:15;;;;;;;2.75;0.80;;;17.90;52.90;;;;;;4931964;29;20055;-93
2021/05/24 12:38:44;;;;;;;1.58;0.90;;;17.90;54.00;;;;;;4992539;28;20104;-92
2021/05/24 12:41:44;;;;;;;;;;;18.00;53.70;;;;;;4925627;29;20099;-94
2021/05/24 12:44:43;;;;;;;;;;;17.90;53.50;;;;;;4948177;28;19949;-92
2021/05/24 12:48:36;;;;;;;0.93;0.80;;;18.10;53.60;;;;;;4906797;29;19983;-93
2021/05/24 12:51:38;;;;;;;3.78;0.77;;;18.00;53.50;;;;;;4896667;29;20059;-93
2021/05/24 12:54:25;;;;;;;4.72;1.92;;;17.90;54.80;;;;;;4904631;29;20192;-91
2021/05/24 12:57:06;;;;;;;2.42;0.70;;;18.00;55.00;;;;;;4891392;29;20155;-94
2021/05/24 12:59:57;;;;;;;3.42;2.17;;;18.20;54.80;;;;;;4944351;28;20077;-94
2021/05/24 13:02:32;;;;;;;3.47;0.98;;;18.10;54.60;;;;;;5016073;28;20249;-94
2021/05/24 13:06:14;;;;;;;;;;;;;;;;;;;;;
2021/05/24 13:08:59;;;;;;;2.90;0.70;;;18.00;55.80;;;;;;4937265;29;20036;-92
2021/05/24 13:24:34;;;;;;;1.27;0.60;;;19.20;53.20;;;;;;5008868;28;20412;-92
2021/05/24 13:31:01;;;;;;;2.35;0.60;;;18.70;50.80;;;;;;4978266;28;20059;-93
2021/05/24 13:34:06;;;;;;;;;;;;;;;;;;;;;
2021/05/24 13:37:21;;;;;;;;;;;;;;;;;;;;;
2021/05/24 13:40:09;;;;;;;1.88;0.50;;;18.40;52.90;;;;;;4878264;29;20041;-93
2021/05/24 13:42:58;;;;;;;1.10;0.63;;;18.20;49.00;;;;;;4884794;29;20069;-94
2021/05/24 13:46:15;;;;;;;0.73;0.50;;;18.00;49.50;;;;;;4889253;29;20075;-94
2021/05/24 13:49:12;;;;;;;3.20;0.70;;;18.00;50.40;;;;;;4884537;29;20048;-94
2021/05/24 13:55:50;;;;;;;;;;;;;;;;;;;;;
2021/05/24 13:58:48;;;;;;;1.25;0.75;;;18.20;51.90;;;;;;4880071;29;20048;-94
2021/05/24 14:01:16;;;;;;;1.00;0.60;;;18.60;51.80;;;;;;4894172;29;20033;-93
2021/05/24 14:14:37;;;;;;;3.10;0.55;;;19.20;49.80;;;;;;4924326;29;20052;-95
2021/05/24 14:17:45;;;;;;;3.50;0.68;;;19.60;48.80;;;;;;4933451;29;22205;-94
2021/05/24 14:20:26;;;;;;;2.05;0.75;;;19.20;49.50;;;;;;4922244;29;20051;-92
2021/05/24 14:26:23;;;;;;;;;;;18.40;49.80;;;;;;4950220;28;20461;-92
2021/05/24 14:29:08;;;;;;;1.48;0.82;;;18.20;51.20;;;;;;4955664;28;19922;-93
2021/05/24 14:31:35;;;;;;;2.15;0.70;;;18.00;51.20;;;;;;4957524;29;20521;-91
2021/05/24 14:34:05;;;;;;;1.20;0.70;;;17.80;52.50;;;;;;4951211;28;20063;-90
2021/05/24 14:36:34;;;;;;;1.20;0.60;;;17.70;53.20;;;;;;4940848;28;20055;-90
2021/05/24 14:39:08;;;;;;;1.17;0.80;;;17.70;54.20;;;;;;4957148;28;20050;-92
2021/05/24 14:41:45;;;;;;;1.42;0.65;;;17.80;53.70;;;;;;4994214;28;20340;-92
2021/05/24 14:44:14;;;;;;;;;;;17.90;54.40;;;;;;5017277;28;20061;-91
2021/05/24 14:46:41;;;;;;;1.33;0.65;;;17.90;53.90;;;;;;5020318;28;19925;-91
2021/05/24 14:49:14;;;;;;;2.10;0.80;;;17.90;53.90;;;;;;5033220;28;20120;-92
2021/05/24 14:51:46;;;;;;;2.47;0.82;;;17.70;54.60;;;;;;5030556;28;20045;-89
2021/05/24 14:54:20;;;;;;;3.13;0.73;;;17.70;54.80;;;;;;5017827;28;20049;-91
2021/05/24 14:56:48;;;;;;;1.85;0.80;;;17.70;55.10;;;;;;5014397;28;20068;-91
2021/05/24 14:59:17;;;;;;;1.67;0.75;;;17.70;56.00;;;;;;5028303;28;20045;-92
2021/05/24 15:02:17;;;;;;;2.00;0.80;;;17.60;56.40;;;;;;5015859;28;20129;-92
2021/05/24 15:04:48;;;;;;;2.10;0.98;;;17.50;55.70;;;;;;5033003;28;20109;-93
2021/05/24 15:07:16;;;;;;;1.45;0.88;;;17.40;56.60;;;;;;5012764;28;20111;-92
2021/05/24 15:09:45;;;;;;;1.75;0.93;;;17.40;57.00;;;;;;5042523;28;20108;-91
2021/05/24 15:12:16;;;;;;;2.30;0.80;;;17.30;57.10;;;;;;5009978;28;20049;-92
2021/05/24 15:14:44;;;;;;;2.63;0.90;;;17.30;56.80;;;;;;5017961;28;20126;-93
2021/05/24 15:17:11;;;;;;;3.17;0.80;;;17.30;57.70;;;;;;5021354;28;20341;-93
2021/05/24 15:19:38;;;;;;;1.95;0.93;;;17.30;57.60;;;;;;5019608;28;20052;-93
2021/05/24 15:22:10;;;;;;;2.40;0.85;;;17.20;57.50;;;;;;5027871;28;20072;-91
2021/05/24 15:24:43;;;;;;;3.58;0.90;;;17.20;57.10;;;;;;5020168;28;20126;-93
2021/05/24 15:27:15;;;;;;;5.22;1.23;;;17.10;57.60;;;;;;5030610;28;20049;-93
2021/05/24 15:29:49;;;;;;;3.10;1.00;;;17.10;58.00;;;;;;5038367;28;20049;-93
2021/05/24 15:32:16;;;;;;;4.30;1.70;;;17.30;57.80;;;;;;5032958;28;20049;-87
2021/05/24 15:34:44;;;;;;;4.70;4.20;;;17.50;56.90;;;;;;5013197;28;20045;-86
2021/05/24 15:37:11;;;;;;;19.63;14.77;;;17.60;56.90;;;;;;5036102;28;20085;-88
2021/05/24 15:39:41;;;;;;;1.27;1.10;;;17.80;56.40;;;;;;5016239;28;20042;-88
2021/05/24 15:42:09;;;;;;;9.18;6.00;;;17.80;56.40;;;;;;5038628;28;20061;-91
2021/05/24 15:44:37;;;;;;;10.35;6.63;;;17.80;56.50;;;;;;5027839;28;20080;-89
2021/05/24 15:47:07;;;;;;;5.30;2.92;;;17.80;56.20;;;;;;5033019;28;20038;-88
2021/05/24 15:49:37;;;;;;;8.63;3.70;;;17.90;56.40;;;;;;5032738;28;20096;-88
2021/05/24 15:52:05;;;;;;;1.65;0.82;;;18.00;56.10;;;;;;5033534;28;20591;-93
2021/05/24 15:54:32;;;;;;;1.58;0.88;;;18.00;55.30;;;;;;5034408;28;20126;-90
2021/05/24 15:57:09;;;;;;;3.03;0.70;;;17.80;55.70;;;;;;5030886;28;20127;-89
2021/05/24 15:59:36;;;;;;;4.32;0.95;;;17.70;56.50;;;;;;5029403;28;20056;-90
2021/05/24 16:02:10;;;;;;;3.22;0.77;;;17.50;56.30;;;;;;5026934;28;20128;-89
2021/05/24 16:04:37;;;;;;;1.67;0.70;;;17.40;57.60;;;;;;5013607;28;20045;-89
2021/05/24 16:07:04;;;;;;;3.25;1.80;;;17.30;56.90;;;;;;5016917;28;20045;-88
2021/05/24 16:09:32;;;;;;;2.30;0.90;;;17.20;57.70;;;;;;5033699;28;20048;-90
2021/05/24 16:12:07;;;;;;;2.20;1.20;;;17.10;58.00;;;;;;5035557;28;20053;-91
2021/05/24 16:14:35;;;;;;;2.42;1.15;;;17.10;58.10;;;;;;5018296;28;20057;-90
2021/05/24 16:17:09;;;;;;;1.65;0.95;;;17.00;62.10;;;;;;5019377;28;20349;-89
2021/05/24 16:19:47;;;;;;;2.20;1.00;;;17.00;63.90;;;;;;5036673;28;20045;-90
2021/05/24 16:22:15;;;;;;;4.55;1.17;;;16.80;66.40;;;;;;5016956;28;20087;-91
2021/05/24 16:27:28;;;;;;;5.32;1.50;;;16.50;67.90;;;;;;5029983;28;20097;-89
2021/05/24 16:30:03;;;;;;;6.82;1.80;;;16.50;66.10;;;;;;5034682;28;20045;-91
2021/05/24 16:32:44;;;;;;;2.53;1.25;;;16.30;66.00;;;;;;5035024;28;20053;-90
2021/05/24 16:35:11;;;;;;;3.63;1.15;;;16.20;68.10;;;;;;5033832;28;20046;-91
2021/05/24 16:37:41;;;;;;;3.85;1.40;;;16.10;67.80;;;;;;5000073;28;20056;-92
2021/05/24 16:40:09;;;;;;;4.50;1.42;;;16.00;69.10;;;;;;5029695;28;20060;-90
2021/05/24 16:42:44;;;;;;;2.25;1.30;;;16.00;69.60;;;;;;5030794;28;20058;-92
2021/05/24 16:45:22;;;;;;;5.63;1.73;;;15.90;70.80;;;;;;5015330;28;20084;-89
2021/05/24 16:47:52;;;;;;;6.78;1.98;;;15.80;71.50;;;;;;5032642;28;20116;-90
2021/05/24 16:50:19;;;;;;;3.38;1.50;;;15.80;72.30;;;;;;5001978;28;20061;-90
2021/05/24 16:52:47;;;;;;;3.10;1.15;;;15.80;72.70;;;;;;5018319;28;20400;-91
2021/05/24 16:55:17;;;;;;;3.42;1.30;;;15.70;73.50;;;;;;5024500;28;20049;-90
2021/05/24 16:57:55;;;;;;;3.55;1.17;;;15.60;76.80;;;;;;5037619;28;20053;-90
2021/05/24 17:01:03;;;;;;;3.63;1.25;;;15.60;72.50;;;;;;4998209;28;20438;-92
2021/05/24 17:04:24;;;;;;;1.60;0.93;;;15.50;74.80;;;;;;4993082;28;20438;-92
2021/05/24 17:06:53;;;;;;;4.38;1.13;;;15.40;77.10;;;;;;5000957;28;20141;-91
2021/05/24 17:09:20;;;;;;;4.38;1.40;;;15.50;77.20;;;;;;4986600;28;20054;-91
2021/05/24 17:11:48;;;;;;;5.28;1.17;;;15.40;78.70;;;;;;4971160;28;20468;-91
2021/05/24 17:14:17;;;;;;;5.55;1.40;;;15.30;78.70;;;;;;4982339;28;20050;-89
2021/05/24 17:16:48;;;;;;;2.97;1.02;;;15.30;78.80;;;;;;4993751;28;20069;-89
2021/05/24 17:19:22;;;;;;;3.08;1.20;;;15.30;80.20;;;;;;4989617;28;20453;-88
2021/05/24 17:21:49;;;;;;;3.50;1.20;;;15.20;84.90;;;;;;4990276;28;20058;-90
2021/05/24 17:24:16;;;;;;;4.00;1.95;;;15.20;84.00;;;;;;4999397;28;20054;-89
2021/05/24 17:26:46;;;;;;;3.10;1.63;;;15.20;84.10;;;;;;4975059;28;20206;-90
2021/05/24 17:29:13;;;;;;;4.57;1.35;;;15.20;83.00;;;;;;4976496;28;20046;-90
2021/05/24 17:32:10;;;;;;;3.70;1.30;;;15.10;81.80;;;;;;4997830;28;20085;-91
2021/05/24 17:35:19;;;;;;;3.13;1.80;;;15.00;83.80;;;;;;4950343;28;20063;-87
2021/05/24 17:38:36;;;;;;;3.17;1.35;;;14.90;86.10;;;;;;4952735;28;20478;-88
2021/05/24 17:48:53;;;;;;;2.83;1.38;;;14.40;90.90;;;;;;4883554;29;20055;-90
2021/05/24 17:51:34;;;;;;;6.72;1.58;;;14.30;94.20;;;;;;5117971;27;20753;-89
2021/05/24 17:54:04;;;;;;;5.25;1.30;;;14.20;99.00;;;;;;5137146;27;20070;-89
2021/05/24 17:56:31;;;;;;;5.47;1.58;;;14.00;99.90;;;;;;5112207;28;20094;-91
2021/05/24 17:59:00;;;;;;;5.53;2.03;;;13.90;99.90;;;;;;5115856;27;20131;-89
2021/05/24 18:01:30;;;;;;;6.15;1.70;;;13.70;99.90;;;;;;5106954;28;20075;-89
2021/05/24 18:03:58;;;;;;;3.80;1.65;;;13.50;99.90;;;;;;5105490;28;20095;-89
2021/05/24 18:06:26;;;;;;;2.33;1.55;;;13.40;99.90;;;;;;5113541;28;20052;-89
2021/05/24 18:08:53;;;;;;;5.30;1.80;;;13.40;99.90;;;;;;5102729;28;20387;-89
2021/05/24 18:11:20;;;;;;;3.60;1.40;;;13.30;99.90;;;;;;5136546;27;20131;-89
2021/05/24 18:13:52;;;;;;;9.27;1.85;;;13.30;99.90;;;;;;5105382;28;20040;-87
2021/05/24 18:16:23;;;;;;;9.82;2.05;;;13.30;99.90;;;;;;5094284;28;20052;-88
2021/05/24 18:18:50;;;;;;;3.75;1.50;;;13.30;99.90;;;;;;5097448;28;20063;-90
2021/05/24 18:21:18;;;;;;;6.75;1.80;;;13.30;99.90;;;;;;5102570;28;20068;-90
2021/05/24 18:23:48;;;;;;;3.70;1.40;;;13.30;99.90;;;;;;5104711;28;20076;-89
2021/05/24 18:26:16;;;;;;;4.95;1.40;;;13.30;99.90;;;;;;5105200;28;20043;-90
2021/05/24 18:28:44;;;;;;;3.78;1.80;;;13.30;99.90;;;;;;5105722;28;20036;-90
2021/05/24 18:31:12;;;;;;;3.95;1.67;;;13.30;99.90;;;;;;5105035;28;20468;-91
2021/05/24 18:33:39;;;;;;;5.05;1.65;;;13.30;99.90;;;;;;5101992;28;20052;-92
2021/05/24 18:36:09;;;;;;;5.68;1.83;;;13.30;99.90;;;;;;5106819;28;20079;-87
2021/05/24 18:38:39;;;;;;;1.60;1.27;;;13.30;99.90;;;;;;5108860;28;20040;-88
2021/05/24 18:41:10;;;;;;;3.22;1.40;;;13.30;99.90;;;;;;5109192;28;20051;-87
2021/05/24 18:43:42;;;;;;;3.13;1.42;;;13.20;99.90;;;;;;5100517;28;20080;-87
2021/05/24 18:46:11;;;;;;;2.85;1.40;;;13.30;99.90;;;;;;5107681;28;20470;-87
2021/05/24 18:48:44;;;;;;;5.55;1.65;;;13.20;99.90;;;;;;5108412;28;20152;-86
2021/05/24 18:51:15;;;;;;;3.80;1.45;;;13.20;99.90;;;;;;5093723;28;20044;-88
2021/05/24 18:53:47;;;;;;;2.13;1.13;;;13.20;99.90;;;;;;5101295;28;20147;-88
2021/05/24 18:56:16;;;;;;;6.38;1.83;;;13.20;99.90;;;;;;5094694;28;20437;-87
2021/05/24 18:58:46;;;;;;;2.10;1.38;;;13.10;99.90;;;;;;5109587;28;20122;-87
2021/05/24 19:01:17;;;;;;;3.13;1.25;;;13.10;99.90;;;;;;5107334;28;20161;-87
2021/05/24 19:03:51;;;;;;;5.05;1.38;;;13.00;99.90;;;;;;5094977;28;20185;-90
2021/05/24 19:06:18;;;;;;;1.92;1.17;;;13.00;99.90;;;;;;5098601;28;20104;-87
2021/05/24 19:08:50;;;;;;;3.50;1.38;;;12.90;99.90;;;;;;5093546;28;20218;-85
2021/05/24 19:11:23;;;;;;;1.65;1.05;;;12.90;99.90;;;;;;5087167;28;20075;-86
2021/05/24 19:13:50;;;;;;;4.57;1.33;;;12.90;99.90;;;;;;5091705;28;20108;-87
2021/05/24 19:16:20;;;;;;;4.03;1.40;;;12.80;99.90;;;;;;5087033;28;20040;-86
2021/05/24 19:18:50;;;;;;;3.78;1.23;;;12.80;99.90;;;;;;5086706;28;20059;-86
2021/05/24 19:21:20;;;;;;;1.13;1.00;;;12.80;99.90;;;;;;5093585;28;20105;-87
2021/05/24 19:23:52;;;;;;;1.55;1.13;;;12.80;99.90;;;;;;5093495;28;20053;-88
2021/05/24 19:26:27;;;;;;;2.28;1.30;;;12.80;99.90;;;;;;5076833;28;20124;-86
2021/05/24 19:29:08;;;;;;;4.25;1.63;;;12.80;99.90;;;;;;5096980;28;20044;-87
2021/05/24 19:31:37;;;;;;;1.83;1.52;;;12.70;99.90;;;;;;5086989;28;20084;-86
2021/05/24 19:34:08;;;;;;;2.78;1.38;;;12.70;99.90;;;;;;5094115;28;20673;-88
2021/05/24 19:36:37;;;;;;;2.88;1.45;;;12.70;99.90;;;;;;5092481;28;20446;-88
2021/05/24 19:39:06;;;;;;;3.13;1.40;;;12.60;99.90;;;;;;5093242;28;20159;-88
2021/05/24 19:41:33;;;;;;;2.53;1.48;;;12.70;99.90;;;;;;5091922;28;20494;-88
2021/05/24 19:44:00;;;;;;;2.45;1.08;;;12.70;99.90;;;;;;5092135;28;20439;-88
2021/05/24 19:46:27;;;;;;;1.88;1.10;;;12.60;99.90;;;;;;5090323;28;20087;-89
2021/05/24 19:56:38;;;;;;;2.05;1.48;;;12.40;99.90;;;;;;5092756;28;20366;-89
2021/05/24 20:24:42;;;;;;;2.70;1.60;;;11.70;99.90;;;;;;5076926;28;20048;-88
2021/05/24 20:27:09;;;;;;;4.10;1.60;;;11.60;99.90;;;;;;5090350;28;20044;-88
2021/05/24 20:29:36;;;;;;;7.07;1.63;;;11.50;99.90;;;;;;5082354;28;20121;-90
2021/05/24 20:32:05;;;;;;;3.53;2.00;;;11.50;99.90;;;;;;5101983;28;20068;-88
2021/05/24 20:34:32;;;;;;;5.55;1.38;;;11.60;99.90;;;;;;5093794;28;20082;-89
2021/05/24 20:37:00;;;;;;;3.42;1.33;;;11.60;99.90;;;;;;5081549;28;20149;-88
2021/05/24 20:39:27;;;;;;;2.50;0.80;;;11.50;99.90;;;;;;5084854;28;20098;-86
2021/05/24 20:41:53;;;;;;;4.00;0.80;;;11.40;99.90;;;;;;5114045;27;20099;-85
2021/05/24 20:44:23;;;;;;;2.80;1.27;;;11.20;99.90;;;;;;5090103;28;20063;-85
2021/05/24 20:46:50;;;;;;;1.08;0.70;;;11.00;99.90;;;;;;5074227;28;20128;-84
2021/05/24 20:49:20;;;;;;;0.75;0.60;;;10.60;99.90;;;;;;5091466;28;20047;-84
2021/05/24 20:51:48;;;;;;;0.70;0.70;;;10.10;99.90;;;;;;5077486;28;20044;-85
2021/05/24 20:54:15;;;;;;;2.30;0.95;;;9.70;99.90;;;;;;5091032;28;20043;-86
2021/05/24 20:56:43;;;;;;;0.88;0.88;;;9.40;99.90;;;;;;5091830;28;20059;-86
2021/05/24 20:59:15;;;;;;;1.85;0.80;;;9.10;99.90;;;;;;5092375;28;20117;-87
2021/05/24 21:01:46;;;;;;;1.83;0.90;;;8.90;99.90;;;;;;5091903;28;20134;-86
2021/05/24 21:04:14;;;;;;;2.60;0.90;;;8.70;99.90;;;;;;5091415;28;20082;-87
2021/05/24 21:06:41;;;;;;;2.30;0.88;;;8.60;99.90;;;;;;5094522;28;20052;-86
2021/05/24 21:09:09;;;;;;;3.67;1.40;;;8.40;99.90;;;;;;5090748;28;20204;-87
2021/05/24 21:11:39;;;;;;;1.27;1.10;;;8.40;99.90;;;;;;5087323;28;20097;-87
2021/05/24 21:14:10;;;;;;;2.28;1.38;;;8.30;99.90;;;;;;5091228;28;20040;-86
2021/05/24 21:16:37;;;;;;;3.08;1.20;;;8.30;99.90;;;;;;5089655;28;20048;-87
2021/05/24 21:19:04;;;;;;;2.63;1.15;;;8.30;99.90;;;;;;5091266;28;20101;-85
2021/05/24 21:21:31;;;;;;;2.30;1.00;;;8.30;99.90;;;;;;5089226;28;20086;-87
2021/05/24 21:23:59;;;;;;;1.45;0.82;;;8.30;99.90;;;;;;5091351;28;20043;-87
2021/05/24 21:26:26;;;;;;;3.65;1.20;;;8.30;99.90;;;;;;5091693;28;20048;-87
2021/05/24 21:28:53;;;;;;;1.90;1.10;;;8.30;99.90;;;;;;5086176;28;20079;-86
2021/05/24 21:31:20;;;;;;;1.95;1.30;;;8.40;99.90;;;;;;5091024;28;20048;-86
2021/05/24 21:36:34;;;;;;;3.72;1.17;;;8.40;99.90;;;;;;5091614;28;20051;-87
2021/05/24 21:39:02;;;;;;;2.47;1.02;;;8.40;99.90;;;;;;5089882;28;20089;-86
2021/05/24 21:41:29;;;;;;;1.13;1.10;;;8.40;99.90;;;;;;5090964;28;20044;-87
2021/05/24 21:43:56;;;;;;;2.58;1.55;;;8.30;99.90;;;;;;5089634;28;20127;-87
2021/05/24 21:46:23;;;;;;;1.63;1.00;;;8.40;99.90;;;;;;5090786;28;20064;-86
2021/05/24 21:48:50;;;;;;;2.38;1.00;;;8.40;99.90;;;;;;5091036;28;20070;-87
2021/05/24 21:51:19;;;;;;;1.50;1.00;;;8.40;99.90;;;;;;5090250;28;20545;-86
2021/05/24 21:53:48;;;;;;;1.73;0.77;;;8.40;99.90;;;;;;5088192;28;20044;-86
2021/05/24 21:56:18;;;;;;;2.08;1.02;;;8.40;99.90;;;;;;5088961;28;20144;-86
2021/05/24 21:58:45;;;;;;;1.60;1.10;;;8.40;99.90;;;;;;5090933;28;20559;-86
2021/05/24 22:01:12;;;;;;;2.40;1.00;;;8.40;99.90;;;;;;5089378;28;20055;-86
2021/05/24 22:03:42;;;;;;;1.23;1.13;;;8.40;99.90;;;;;;5090057;28;20144;-88
2021/05/24 22:06:09;;;;;;;2.53;1.17;;;8.30;99.90;;;;;;5092681;28;20075;-86
2021/05/24 22:08:35;;;;;;;3.40;1.17;;;8.30;99.90;;;;;;5124743;27;20066;-87
2021/05/24 22:11:03;;;;;;;0.90;0.88;;;8.20;99.90;;;;;;5090758;28;20052;-87
2021/05/24 22:13:29;;;;;;;3.75;1.15;;;8.20;99.90;;;;;;5087668;28;20498;-87
2021/05/24 22:15:59;;;;;;;1.63;1.00;;;8.20;99.90;;;;;;5090012;28;20407;-87
2021/05/24 22:18:26;;;;;;;4.70;1.38;;;8.20;99.90;;;;;;5088752;28;20135;-86
2021/05/24 22:20:54;;;;;;;4.85;1.20;;;8.10;99.90;;;;;;5089431;28;20072;-86
2021/05/24 22:23:22;;;;;;;1.70;1.20;;;8.10;99.90;;;;;;5086242;28;20059;-86
2021/05/24 22:25:49;;;;;;;0.98;0.90;;;8.00;99.90;;;;;;5090444;28;20068;-86
2021/05/24 22:28:16;;;;;;;4.80;1.30;;;7.90;99.90;;;;;;5083305;28;20108;-86
2021/05/24 22:30:44;;;;;;;2.65;1.55;;;7.90;99.90;;;;;;5089845;28;20056;-87
2021/05/24 22:33:11;;;;;;;1.75;1.10;;;7.90;99.90;;;;;;5088909;28;20161;-85
2021/05/24 22:35:38;;;;;;;3.42;1.42;;;7.90;99.90;;;;;;5088898;28;20132;-86
2021/05/24 22:38:07;;;;;;;5.10;1.40;;;7.80;99.90;;;;;;5092033;28;20071;-85
2021/05/24 22:40:34;;;;;;;2.90;1.30;;;7.80;99.90;;;;;;5094049;28;20071;-86
2021/05/24 22:43:01;;;;;;;2.80;1.30;;;7.80;99.90;;;;;;5094378;28;20131;-86
2021/05/24 22:45:29;;;;;;;2.75;1.20;;;7.80;99.90;;;;;;5093490;28;20075;-86
2021/05/24 22:47:56;;;;;;;3.53;1.20;;;7.80;99.90;;;;;;5094536;28;20082;-85
2021/05/24 22:50:23;;;;;;;2.35;1.20;;;7.80;99.90;;;;;;5093580;28;20048;-86
2021/05/24 22:52:55;;;;;;;2.80;1.42;;;7.80;99.90;;;;;;5089142;28;20082;-86
2021/05/24 22:55:30;;;;;;;4.30;1.65;;;7.80;99.90;;;;;;5094605;28;20044;-86
2021/05/24 22:57:57;;;;;;;3.67;1.00;;;7.80;99.90;;;;;;5092194;28;20128;-87
2021/05/24 23:00:28;;;;;;;1.63;1.13;;;7.90;99.90;;;;;;5092211;28;20119;-85
2021/05/24 23:02:59;;;;;;;2.30;1.17;;;7.90;99.90;;;;;;5092947;28;20103;-86
2021/05/24 23:05:29;;;;;;;1.48;1.17;;;7.90;99.90;;;;;;5094241;28;20294;-87
2021/05/24 23:07:57;;;;;;;4.88;1.30;;;7.90;99.90;;;;;;5092465;28;20116;-87
2021/05/24 23:10:23;;;;;;;4.78;1.50;;;7.90;99.90;;;;;;5093764;28;20625;-87
2021/05/24 23:12:53;;;;;;;2.20;1.42;;;7.90;99.90;;;;;;5093845;28;20123;-86
2021/05/24 23:15:22;;;;;;;3.75;1.17;;;7.90;99.90;;;;;;5089613;28;20458;-86
2021/05/24 23:17:52;;;;;;;1.73;1.20;;;7.90;99.90;;;;;;5089207;28;20055;-87
2021/05/24 23:20:20;;;;;;;4.95;1.17;;;7.90;99.90;;;;;;5092775;28;20044;-87
2021/05/24 23:22:47;;;;;;;3.05;1.50;;;7.90;99.90;;;;;;5093618;28;20085;-86
2021/05/24 23:25:15;;;;;;;1.85;1.17;;;7.90;99.90;;;;;;5114350;27;20051;-86
2021/05/24 23:27:42;;;;;;;5.93;1.23;;;7.90;99.90;;;;;;5081420;28;20079;-86
2021/05/24 23:30:10;;;;;;;1.33;1.20;;;7.90;99.90;;;;;;5093589;28;20127;-86
2021/05/24 23:32:40;;;;;;;1.88;1.13;;;7.80;99.90;;;;;;5094238;28;20465;-86
2021/05/24 23:35:10;;;;;;;1.63;1.23;;;7.80;99.90;;;;;;5092566;28;20426;-87
2021/05/24 23:37:38;;;;;;;10.27;1.45;;;7.70;99.90;;;;;;5093210;28;20470;-87
2021/05/24 23:40:14;;;;;;;1.20;1.10;;;7.60;99.90;;;;;;5092985;28;20080;-86
2021/05/24 23:42:46;;;;;;;2.13;1.10;;;7.60;99.90;;;;;;5091543;28;20040;-86
2021/05/24 23:45:13;;;;;;;2.03;1.30;;;7.50;99.90;;;;;;5088607;28;20048;-84
2021/05/24 23:47:40;;;;;;;2.72;1.38;;;7.50;99.90;;;;;;5092678;28;20589;-85
2021/05/24 23:50:11;;;;;;;3.88;1.38;;;7.40;99.90;;;;;;5092906;28;20499;-84
2021/05/24 23:52:39;;;;;;;8.18;1.77;;;7.30;99.90;;;;;;5093330;28;20044;-85
2021/05/24 23:55:07;;;;;;;4.50;1.50;;;7.30;99.90;;;;;;5093124;28;20050;-86
2021/05/24 23:57:34;;;;;;;1.95;1.48;;;7.20;99.90;;;;;;5092895;28;20131;-85
